Flight Track Log - Related Links

Times and Time Zones

All times are in EDT time to prevent confusion due to time zone crossing. See the N5329F flight status page for this flight to view local times or setup timezone preferences in your user account.

Time Position Orientation Groundspeed Altitude Reporting Facility
EDT Latitude Longitude Course Direction KTS MPH feet Rate Location/Type
Wed 03:55:16 PM 42.2047 -82.2258 94° East 199 229 11,500  Level Cleveland Center
Wed 03:56:16 PM 42.2014 -82.1611 95° East 199 229 11,600 50 Climbing Cleveland Center
Wed 03:57:16 PM 42.1961 -82.0742 93° East 205 236 11,600  Level Cleveland Center
Wed 03:58:16 PM 42.1931 -81.9983 92° East 199 229 11,600  Level Cleveland Center
Wed 03:59:16 PM 42.1917 -81.9311 93° East 199 229 11,600  Level Cleveland Center
Wed 04:00:16 PM 42.1883 -81.8553 93° East 199 229 11,600  Level Cleveland Center
Wed 04:01:16 PM 42.1850 -81.7797 91° East 199 229 11,600  Level Cleveland Center
Wed 04:02:16 PM 42.1839 -81.7039 94° East 199 229 11,600 -50 Level Cleveland Center
Wed 04:03:16 PM 42.1803 -81.6311 94° East 199 229 11,500 -50 Descending Cleveland Center
Wed 04:04:16 PM 42.1767 -81.5553 91° East 199 229 11,500  Level Cleveland Center
Wed 04:05:16 PM 42.1753 -81.4742 94° East 199 229 11,500  Level Cleveland Center
Wed 04:06:16 PM 42.1717 -81.3983 96° East 199 229 11,500  Level Cleveland Center
Wed 04:07:16 PM 42.1661 -81.3256 92° East 199 229 11,500  Level Cleveland Center
Wed 04:08:17 PM 42.1644 -81.2497 94° East 199 229 11,500  Level Cleveland Center
Wed 04:09:16 PM 42.1606 -81.1742 94° East 199 229 11,500  Level Cleveland Center
Wed 04:10:16 PM 42.1569 -81.0986 92° East 199 229 11,500  Level Cleveland Center
Wed 04:11:16 PM 42.1550 -81.0200 94° East 199 229 11,500  Level Cleveland Center
Wed 04:12:16 PM 42.1511 -80.9472 94° East 199 229 11,500  Level Cleveland Center
Wed 04:13:16 PM 42.1472 -80.8800 94° East 199 229 11,500  Level Cleveland Center
Wed 04:14:16 PM 42.1431 -80.8044 94° East 199 229 11,500  Level Cleveland Center
Wed 04:15:16 PM 42.1392 -80.7258 92° East 199 229 11,500  Level Cleveland Center
Wed 04:16:16 PM 42.1372 -80.6503 96° East 199 229 11,500  Level Cleveland Center
Wed 04:17:16 PM 42.1308 -80.5719 92° East 199 229 11,500  Level Cleveland Center
Wed 04:18:16 PM 42.1289 -80.4992 94° East 199 229 11,500  Level Cleveland Center
Wed 04:19:16 PM 42.1244 -80.4181 94° East 199 229 11,500  Level Cleveland Center
Wed 04:20:16 PM 42.1203 -80.3425 94° East 199 229 11,500  Level Cleveland Center
Wed 04:21:16 PM 42.1158 -80.2642 90° East 199 229 11,500  Level Cleveland Center
Wed 04:22:16 PM 42.1156 -80.1914 96° East 199 229 11,500  Level Cleveland Center
Wed 04:23:16 PM 42.1092 -80.1131 95° East 199 229 11,500  Level Cleveland Center
Wed 04:24:16 PM 42.1047 -80.0375 93° East 199 229 11,500  Level Cleveland Center
Wed 04:25:16 PM 42.1022 -79.9619 95° East 199 229 11,500  Level Cleveland Center
Wed 04:26:16 PM 42.0975 -79.8864 94° East 204 235 11,500  Level Cleveland Center
Wed 04:27:16 PM 42.0928 -79.8053 93° East 204 235 11,500  Level Cleveland Center
Wed 04:28:16 PM 42.0903 -79.7297 97° East 204 235 11,500  Level Cleveland Center
Wed 04:29:16 PM 42.0833 -79.6572 93° East 199 229 11,500  Level Cleveland Center
Wed 04:30:16 PM 42.0806 -79.5817 95° East 205 236 11,500  Level Cleveland Center
Wed 04:31:16 PM 42.0758 -79.5089 95° East 205 236 11,500  Level Cleveland Center
Wed 04:32:16 PM 42.0711 -79.4336 95° East 205 236 11,500  Level Cleveland Center
Wed 04:33:16 PM 42.0661 -79.3553 95° East 200 230 11,500  Level Cleveland Center
Wed 04:34:16 PM 42.0611 -79.2769 95° East 200 230 11,500  Level Cleveland Center
Wed 04:35:16 PM 42.0558 -79.1961 93° East 200 230 11,500  Level Cleveland Center
Wed 04:36:16 PM 42.0528 -79.1236 95° East 200 230 11,500  Level Cleveland Center
Wed 04:37:16 PM 42.0478 -79.0481 95° East 200 230 11,500  Level Cleveland Center
Wed 04:38:16 PM 42.0425 -78.9700 93° East 200 230 11,500  Level Cleveland Center
Wed 04:39:16 PM 42.0394 -78.8944 95° East 200 230 11,500  Level Cleveland Center
Wed 04:40:16 PM 42.0339 -78.8136 95° East 200 230 11,500  Level Cleveland Center
Wed 04:41:16 PM 42.0286 -78.7383 95° East 200 230 11,500  Level Cleveland Center
Wed 04:42:16 PM 42.0231 -78.6600 95° East 200 230 11,500  Level Cleveland Center
Wed 04:43:16 PM 42.0175 -78.5819 95° East 200 230 11,500  Level Cleveland Center
Wed 04:44:16 PM 42.0122 -78.5067 96° East 200 230 11,500  Level Cleveland Center
Wed 04:45:16 PM 42.0067 -78.4314 96° East 200 230 11,500  Level Cleveland Center
Wed 04:46:16 PM 42.0008 -78.3506 95° East 200 230 11,500  Level Cleveland Center
Wed 04:47:16 PM 41.9953 -78.2725 92° East 200 230 11,500  Level Cleveland Center
Wed 04:48:16 PM 41.9936 -78.1917 96° East 200 230 11,500  Level Cleveland Center
Wed 04:49:16 PM 41.9878 -78.1164 96° East 200 230 11,500  Level Cleveland Center
Wed 04:50:16 PM 41.9819 -78.0356 94° East 205 236 11,500 -100 Level Cleveland Center
Wed 04:51:16 PM 41.9778 -77.9547 96° East 205 236 11,300 -189 Descending Cleveland Center
Wed 04:52:55 PM 41.9664 -77.8169 98° East 220 253 11,000 -231 Descending New York Center
Wed 04:53:52 PM 41.9586 -77.7381 93° East 220 253 10,700 -254 Descending New York Center
Wed 04:54:53 PM 41.9550 -77.6567 100° East 220 253 10,500 -198 Descending New York Center
Wed 04:55:53 PM 41.9464 -77.5889 95° East 220 253 10,300 -200 Descending New York Center
Wed 04:56:53 PM 41.9406 -77.5075 94° East 220 253 10,100 -198 Descending New York Center
Wed 04:57:54 PM 41.9367 -77.4289 98° East 220 253 9,900 -202 Descending New York Center
Wed 04:58:52 PM 41.9286 -77.3500 95° East 220 253 9,700 -203 Descending New York Center
Wed 04:59:52 PM 41.9242 -77.2772 96° East 213 245 9,500 -198 Descending New York Center
Wed 05:00:53 PM 41.9181 -77.2014 95° East 208 239 9,300 -246 Descending New York Center
Wed 05:01:54 PM 41.9133 -77.1311 98° East 198 228 9,000 -252 Descending New York Center
Wed 05:02:52 PM 41.9050 -77.0522 96° East 198 228 8,800 -254 Descending New York Center
Wed 05:03:52 PM 41.9003 -76.9878 96° East 192 221 8,500 -197 Descending New York Center
Wed 05:04:54 PM 41.8953 -76.9203 98° East 186 214 8,400 -148 Descending New York Center
Wed 05:05:54 PM 41.8883 -76.8558 97° East 180 207 8,200 -250 Descending New York Center
Wed 05:06:54 PM 41.8831 -76.7939 97° East 175 201 7,900 -250 Descending New York Center
Wed 05:07:54 PM 41.8778 -76.7322 96° East 175 201 7,700 -252 Descending New York Center
Wed 05:08:53 PM 41.8728 -76.6675 97° East 175 201 7,400 -305 Descending New York Center
Wed 05:16:15 PM 41.8188 -76.1068 97° East  Level FlightAware Approximate
Wed 05:17:15 PM 41.8122 -76.0306 97° East  Level FlightAware Approximate
Wed 05:18:15 PM 41.8056 -75.9544 97° East  Level FlightAware Approximate
Wed 05:19:15 PM 41.7989 -75.8782 97° East  Level FlightAware Approximate
Wed 05:20:15 PM 41.7922 -75.8021 97° East  Level FlightAware Approximate
Wed 05:21:15 PM 41.7854 -75.7259 97° East  Level FlightAware Approximate
Wed 05:22:15 PM 41.7786 -75.6498 97° East  Level FlightAware Approximate
Wed 05:23:15 PM 41.7717 -75.5737 97° East  Level FlightAware Approximate
Wed 05:24:15 PM 41.7648 -75.4976 97° East  Level FlightAware Approximate
Wed 05:25:15 PM 41.7578 -75.4215 97° East  Level FlightAware Approximate
Wed 05:26:15 PM 41.7508 -75.3454 97° East  Level FlightAware Approximate
Wed 05:27:15 PM 41.7437 -75.2694 97° East  Level FlightAware Approximate
Wed 05:28:15 PM 41.7366 -75.1934 101° East  Level FlightAware Approximate
Wed 05:29:15 PM 41.7261 -75.1184 95° East  Level FlightAware Approximate
Wed 05:30:15 PM 41.7208 -75.0421 96° East  Level FlightAware Approximate
Wed 05:31:15 PM 41.7153 -74.9672 96° East  Level FlightAware Approximate
Wed 05:32:15 PM 41.7093 -74.8910 102° East  Level Estimated
Wed 05:33:15 PM 41.7087 -74.8871 96° East  Level FlightAware Approximate
Wed 05:34:15 PM 41.7029 -74.8109 96° East  Level Estimated

Login

Don't have an account? Register now (free) for customized features, flight alerts, and more!